Time;durP1;ratioP1;P1;durP2;ratioP2;P2;SDS_P1;SDS_P2;PMS_P1;PMS_P2;Temp;Humidity;BMP_temperature;BMP_pressure;BME280_temperature;BME280_humidity;BME280_pressure;Samples;Min_cycle;Max_cycle;Signal;HPM_P1;HPM_P2
2022/06/26 00:00:36;;;;;;;0.50;0.43;;;;;;;21.17;100.00;95219.69;5133267;27;20453;-62
2022/06/26 00:03:04;;;;;;;0.40;0.30;;;;;;;21.02;100.00;95228.44;5133037;27;20463;-62
2022/06/26 00:05:33;;;;;;;2.10;0.67;;;;;;;21.21;100.00;95228.66;5133114;27;20461;-62
2022/06/26 00:08:01;;;;;;;1.63;0.70;;;;;;;20.99;100.00;95229.88;5133206;27;20545;-62
2022/06/26 00:10:30;;;;;;;0.93;0.93;;;;;;;20.51;100.00;95192.13;5132985;27;20454;-62
2022/06/26 00:12:58;;;;;;;0.40;0.20;;;;;;;21.05;100.00;95220.44;5133844;27;20468;-61
2022/06/26 00:15:28;;;;;;;0.40;0.30;;;;;;;21.17;100.00;95214.31;5133054;27;20505;-62
2022/06/26 00:17:56;;;;;;;6.47;0.73;;;;;;;21.33;100.00;95221.34;5132881;27;20454;-62
2022/06/26 00:20:25;;;;;;;0.50;0.40;;;;;;;21.31;100.00;95228.19;5132878;27;20444;-62
2022/06/26 00:22:53;;;;;;;0.50;0.30;;;;;;;21.40;100.00;95229.66;5132839;27;20458;-62
2022/06/26 00:25:21;;;;;;;0.40;0.20;;;;;;;21.19;100.00;95217.44;5132707;27;20452;-62
2022/06/26 00:27:50;;;;;;;0.50;0.40;;;;;;;21.42;100.00;95232.81;5132749;27;20545;-63
2022/06/26 00:30:19;;;;;;;0.40;0.20;;;;;;;21.43;100.00;95239.75;5133080;27;20863;-62
2022/06/26 00:32:48;;;;;;;0.40;0.30;;;;;;;21.37;100.00;95241.13;5132737;27;20450;-62
2022/06/26 00:35:17;;;;;;;0.50;0.40;;;;;;;21.36;100.00;95241.44;5132790;27;20503;-62
2022/06/26 00:37:44;;;;;;;2.30;1.23;;;;;;;21.44;100.00;95237.84;5132723;27;20409;-62
2022/06/26 00:40:13;;;;;;;0.40;0.30;;;;;;;21.52;100.00;95242.34;5132899;28;20458;-63
2022/06/26 00:42:42;;;;;;;0.50;0.50;;;;;;;21.56;100.00;95243.22;5132362;28;20934;-63
2022/06/26 00:45:11;;;;;;;0.50;0.30;;;;;;;21.51;100.00;95241.56;5132315;28;20474;-62
2022/06/26 00:47:40;;;;;;;0.50;0.40;;;;;;;21.11;100.00;95215.63;5132725;28;20525;-62
2022/06/26 00:50:10;;;;;;;0.40;0.30;;;;;;;21.14;100.00;95234.63;5132544;28;20502;-63
2022/06/26 00:52:41;;;;;;;0.40;0.30;;;;;;;21.01;100.00;95199.91;5132503;28;20450;-62
2022/06/26 00:55:11;;;;;;;0.57;0.57;;;;;;;21.28;100.00;95234.25;5132421;28;20570;-62
2022/06/26 00:57:39;;;;;;;0.60;0.30;;;;;;;20.66;100.00;95213.03;5132443;28;20949;-63
2022/06/26 01:00:10;;;;;;;1.03;0.30;;;;;;;20.92;100.00;95243.91;5132505;27;20415;-62
2022/06/26 01:02:39;;;;;;;0.50;0.40;;;;;;;20.89;100.00;95214.16;5136367;27;20509;-62
2022/06/26 01:05:10;;;;;;;0.50;0.40;;;;;;;21.20;100.00;95244.03;5136526;27;20488;-62
2022/06/26 01:07:40;;;;;;;0.50;0.40;;;;;;;20.73;100.00;95230.19;5136499;27;20422;-62
2022/06/26 01:10:09;;;;;;;0.53;0.30;;;;;;;21.04;100.00;95245.81;5136597;27;20539;-62
2022/06/26 01:12:38;;;;;;;0.50;0.30;;;;;;;21.17;100.00;95242.03;5136497;27;20423;-62
2022/06/26 01:15:08;;;;;;;0.60;0.30;;;;;;;21.27;100.00;95246.19;5136407;27;20985;-62
2022/06/26 01:17:37;;;;;;;0.50;0.40;;;;;;;21.19;100.00;95237.09;5136391;27;20454;-63
2022/06/26 01:20:10;;;;;;;0.43;0.30;;;;;;;21.02;100.00;95253.47;5136568;27;20498;-62
2022/06/26 01:22:39;;;;;;;0.40;0.20;;;;;;;20.42;100.00;95259.53;5136298;27;20510;-62
2022/06/26 01:25:08;;;;;;;1.13;0.70;;;;;;;20.36;100.00;95268.16;5136143;27;20973;-62
2022/06/26 01:27:44;;;;;;;4.53;0.53;;;;;;;20.46;100.00;95259.66;5136339;27;20465;-63
2022/06/26 01:30:13;;;;;;;0.60;0.40;;;;;;;20.43;100.00;95234.19;5135966;27;20496;-63
2022/06/26 01:32:41;;;;;;;0.50;0.50;;;;;;;20.75;100.00;95257.56;5136041;27;20471;-62
2022/06/26 01:35:10;;;;;;;0.50;0.40;;;;;;;20.35;100.00;95261.97;5136056;27;20419;-62
2022/06/26 01:37:40;;;;;;;0.60;0.40;;;;;;;20.13;100.00;95268.50;5136053;27;20422;-62
2022/06/26 01:40:10;;;;;;;0.50;0.40;;;;;;;20.53;100.00;95266.06;5136205;27;20494;-62
2022/06/26 01:42:38;;;;;;;0.60;0.40;;;;;;;20.30;100.00;95194.88;5135795;27;20447;-62
2022/06/26 01:45:07;;;;;;;0.50;0.37;;;;;;;20.92;100.00;95254.69;5135648;27;20564;-63
2022/06/26 01:47:36;;;;;;;0.90;0.77;;;;;;;20.39;100.00;95165.19;5136005;27;20855;-62
2022/06/26 01:50:05;;;;;;;0.50;0.30;;;;;;;20.95;100.00;95228.22;5135675;27;20537;-62
2022/06/26 01:52:34;;;;;;;0.40;0.30;;;;;;;20.70;100.00;95240.84;5135688;27;20433;-62
2022/06/26 01:55:04;;;;;;;0.40;0.30;;;;;;;20.74;100.00;95231.78;5135703;27;20406;-62
2022/06/26 01:57:32;;;;;;;1.13;1.13;;;;;;;20.22;100.00;95249.56;5135857;27;20505;-62
2022/06/26 02:00:01;;;;;;;0.50;0.40;;;;;;;19.73;100.00;95243.19;5135640;27;20425;-62
2022/06/26 02:02:30;;;;;;;0.70;0.57;;;;;;;19.13;100.00;95203.25;5135764;27;20433;-63
2022/06/26 02:04:59;;;;;;;0.60;0.47;;;;;;;19.02;100.00;95210.13;5135743;27;20423;-62
2022/06/26 02:07:27;;;;;;;0.70;0.40;;;;;;;19.37;100.00;95261.78;5135286;27;20426;-62
2022/06/26 02:15:29;;;;;;;0.60;0.40;;;;;;;19.34;100.00;95257.03;5135424;27;20450;-62
2022/06/26 02:17:57;;;;;;;4.80;0.50;;;;;;;19.40;100.00;95267.31;5135052;27;21098;-62
2022/06/26 02:20:25;;;;;;;0.50;0.50;;;;;;;19.35;100.00;95212.91;5135071;27;20418;-62
2022/06/26 02:22:54;;;;;;;0.60;0.57;;;;;;;19.55;100.00;95263.25;5134774;27;20521;-61
2022/06/26 02:25:22;;;;;;;0.43;0.30;;;;;;;19.54;100.00;95261.66;5135452;27;20423;-62
2022/06/26 02:27:52;;;;;;;0.40;0.30;;;;;;;19.70;100.00;95251.13;5134943;27;20450;-62
2022/06/26 02:30:21;;;;;;;0.50;0.30;;;;;;;19.77;100.00;95262.13;5134811;27;20466;-62
2022/06/26 02:32:49;;;;;;;0.50;0.33;;;;;;;19.83;100.00;95263.53;5135126;27;20862;-62
2022/06/26 02:35:17;;;;;;;0.53;0.53;;;;;;;19.74;100.00;95260.09;5134805;27;20506;-61
2022/06/26 02:37:46;;;;;;;0.50;0.30;;;;;;;19.97;100.00;95261.34;5134700;27;20423;-61
2022/06/26 02:40:14;;;;;;;0.40;0.30;;;;;;;20.13;100.00;95252.34;5134976;27;20461;-61
2022/06/26 02:42:43;;;;;;;0.50;0.40;;;;;;;20.31;100.00;95247.63;5134520;27;20514;-61
2022/06/26 02:45:13;;;;;;;0.40;0.30;;;;;;;19.93;100.00;95257.75;5134395;27;20474;-61
2022/06/26 02:47:42;;;;;;;0.40;0.20;;;;;;;19.87;100.00;95262.53;5134453;27;20422;-61
2022/06/26 02:50:11;;;;;;;0.40;0.30;;;;;;;20.11;100.00;95251.09;5134174;27;20557;-61
2022/06/26 02:52:39;;;;;;;0.50;0.40;;;;;;;19.93;100.00;95207.44;5134221;27;20446;-61
2022/06/26 02:55:09;;;;;;;0.43;0.37;;;;;;;20.10;100.00;95236.84;5134173;27;20415;-61
2022/06/26 02:57:37;;;;;;;0.50;0.40;;;;;;;20.34;100.00;95262.31;5134434;27;20423;-61
2022/06/26 03:00:09;;;;;;;0.40;0.30;;;;;;;20.35;100.00;95264.66;5134323;27;20418;-61
2022/06/26 03:02:39;;;;;;;0.50;0.50;;;;;;;20.21;100.00;95273.00;5134379;27;20411;-61
2022/06/26 03:05:08;;;;;;;0.50;0.30;;;;;;;19.85;100.00;95274.75;5134135;27;20419;-61
2022/06/26 03:07:37;;;;;;;0.50;0.40;;;;;;;19.64;100.00;95275.53;5134216;27;20910;-61
2022/06/26 03:10:07;;;;;;;0.53;0.53;;;;;;;19.99;100.00;95276.03;5134045;27;20505;-61
2022/06/26 03:12:43;;;;;;;0.40;0.20;;;;;;;20.06;100.00;95251.31;5133963;27;20934;-61
2022/06/26 03:15:11;;;;;;;0.40;0.20;;;;;;;19.59;100.00;95224.63;5134002;27;20983;-61
2022/06/26 03:17:42;;;;;;;1.27;1.23;;;;;;;20.11;100.00;95286.84;5133876;27;20486;-61
2022/06/26 03:20:12;;;;;;;2.30;2.20;;;;;;;20.02;100.00;95278.06;5134176;27;20442;-61
2022/06/26 03:22:41;;;;;;;0.40;0.30;;;;;;;19.94;100.00;95289.69;5133884;27;20989;-61
2022/06/26 03:25:10;;;;;;;0.40;0.20;;;;;;;19.77;100.00;95265.63;5133118;27;20476;-62
2022/06/26 03:27:39;;;;;;;0.40;0.20;;;;;;;19.80;100.00;95299.13;5133695;27;20454;-61
2022/06/26 03:30:10;;;;;;;0.50;0.50;;;;;;;19.76;100.00;95301.69;5133736;27;20462;-62
2022/06/26 03:32:39;;;;;;;0.60;0.50;;;;;;;20.03;100.00;95293.13;5133998;27;20498;-61
2022/06/26 03:35:11;;;;;;;1.00;0.80;;;;;;;20.16;100.00;95285.88;5133718;27;20467;-59
2022/06/26 03:37:39;;;;;;;4.10;0.50;;;;;;;20.01;100.00;95243.44;5133570;27;20453;-59
2022/06/26 03:40:09;;;;;;;0.40;0.30;;;;;;;20.32;100.00;95275.28;5133629;27;20442;-60
2022/06/26 03:42:38;;;;;;;0.83;0.83;;;;;;;19.75;100.00;95238.28;5133268;27;20491;-60
2022/06/26 03:45:08;;;;;;;0.40;0.30;;;;;;;20.03;100.00;95284.25;5133250;27;20561;-60
2022/06/26 03:47:36;;;;;;;1.60;0.30;;;;;;;20.01;100.00;95298.00;5133649;27;20533;-60
2022/06/26 03:50:06;;;;;;;0.40;0.30;;;;;;;19.84;100.00;95265.09;5133159;27;20463;-60
2022/06/26 03:52:36;;;;;;;1.13;1.13;;;;;;;20.22;100.00;95289.94;5133312;27;20513;-60
2022/06/26 03:55:05;;;;;;;0.60;0.30;;;;;;;20.11;100.00;95289.53;5133535;27;20422;-60
2022/06/26 03:57:34;;;;;;;0.40;0.33;;;;;;;20.30;100.00;95286.41;5133310;27;20490;-60
2022/06/26 04:00:04;;;;;;;0.40;0.27;;;;;;;20.38;100.00;95293.63;5133530;27;20732;-60
2022/06/26 04:02:32;;;;;;;0.40;0.20;;;;;;;20.46;100.00;95286.56;5133458;27;20456;-61
2022/06/26 04:05:01;;;;;;;0.50;0.50;;;;;;;20.41;100.00;95281.41;5133072;27;20475;-60
2022/06/26 04:07:29;;;;;;;1.23;1.13;;;;;;;20.34;100.00;95294.63;5132821;27;20419;-60
2022/06/26 04:09:59;;;;;;;0.40;0.30;;;;;;;20.47;100.00;95297.00;5133164;27;20461;-60
2022/06/26 04:12:28;;;;;;;0.50;0.47;;;;;;;20.49;100.00;95289.38;5133015;27;20882;-60
2022/06/26 04:14:56;;;;;;;0.50;0.30;;;;;;;20.62;100.00;95288.28;5133169;27;20654;-61
2022/06/26 04:17:25;;;;;;;0.73;0.73;;;;;;;20.58;100.00;95287.41;5133234;27;20530;-61
2022/06/26 04:19:53;;;;;;;0.57;0.50;;;;;;;20.65;100.00;95278.75;5132872;27;20459;-61
2022/06/26 04:22:22;;;;;;;0.40;0.30;;;;;;;19.80;100.00;95149.31;5133019;27;20419;-61
2022/06/26 04:24:50;;;;;;;0.40;0.20;;;;;;;20.27;100.00;95228.63;5132932;27;20842;-61
2022/06/26 04:27:20;;;;;;;0.40;0.30;;;;;;;20.82;100.00;95297.47;5133287;27;20515;-61
2022/06/26 04:29:49;;;;;;;0.50;0.30;;;;;;;20.73;100.00;95296.75;5132746;27;20887;-61
2022/06/26 04:32:17;;;;;;;0.40;0.30;;;;;;;20.80;100.00;95299.66;5133161;27;20418;-60
2022/06/26 04:34:46;;;;;;;0.47;0.30;;;;;;;20.85;100.00;95283.28;5132608;27;20463;-62
2022/06/26 04:37:14;;;;;;;0.50;0.30;;;;;;;20.75;100.00;95272.94;5133548;27;20945;-62
2022/06/26 04:39:42;;;;;;;0.50;0.30;;;;;;;20.99;100.00;95283.78;5134080;27;20910;-62
2022/06/26 04:42:11;;;;;;;0.40;0.27;;;;;;;21.17;100.00;95300.56;5132794;28;20414;-62
2022/06/26 04:44:41;;;;;;;0.40;0.30;;;;;;;20.95;100.00;95287.47;5132637;28;20937;-62
2022/06/26 04:47:09;;;;;;;0.50;0.30;;;;;;;21.36;100.00;95301.56;5132376;28;20939;-62
2022/06/26 04:49:37;;;;;;;0.40;0.30;;;;;;;21.23;100.00;95308.06;5132442;28;20458;-62
2022/06/26 04:52:06;;;;;;;0.50;0.40;;;;;;;21.40;100.00;95309.78;5132807;27;20462;-62
2022/06/26 04:54:35;;;;;;;0.40;0.30;;;;;;;21.42;100.00;95329.09;5132613;28;20458;-62
2022/06/26 04:57:04;;;;;;;2.03;1.93;;;;;;;21.28;100.00;95318.63;5132543;28;20426;-62
2022/06/26 04:59:32;;;;;;;0.53;0.40;;;;;;;21.40;100.00;95305.16;5132891;28;20501;-62
2022/06/26 05:02:02;;;;;;;0.40;0.30;;;;;;;21.11;100.00;95273.03;5132400;27;20419;-62
2022/06/26 05:04:31;;;;;;;1.47;0.50;;;;;;;21.47;100.00;95313.47;5132564;27;20907;-62
2022/06/26 05:06:59;;;;;;;0.50;0.43;;;;;;;21.28;100.00;95242.34;5132371;28;20434;-62
2022/06/26 05:09:28;;;;;;;0.40;0.20;;;;;;;21.90;100.00;95312.09;5132785;28;20411;-62
2022/06/26 05:11:56;;;;;;;0.40;0.27;;;;;;;22.08;100.00;95311.50;5132350;28;20501;-62
2022/06/26 05:14:25;;;;;;;0.50;0.40;;;;;;;22.07;100.00;95320.72;5132245;28;20513;-62
2022/06/26 05:16:54;;;;;;;0.50;0.50;;;;;;;22.27;100.00;95312.78;5132390;28;20475;-62
2022/06/26 05:19:24;;;;;;;0.50;0.40;;;;;;;22.18;100.00;95339.94;5132382;28;20922;-61
2022/06/26 05:21:56;;;;;;;0.83;0.70;;;;;;;22.12;100.00;95319.69;5131899;27;20868;-61
2022/06/26 05:24:25;;;;;;;0.67;0.47;;;;;;;22.28;100.00;95327.84;5131912;27;20454;-61
2022/06/26 05:26:53;;;;;;;0.40;0.40;;;;;;;22.33;100.00;95341.13;5132193;28;20414;-60
2022/06/26 05:29:21;;;;;;;0.73;0.73;;;;;;;21.63;100.00;95320.88;5132224;28;20931;-60
2022/06/26 05:31:50;;;;;;;0.90;0.90;;;;;;;22.23;100.00;95344.31;5132094;28;20978;-60
2022/06/26 05:34:19;;;;;;;3.23;3.13;;;;;;;21.87;100.00;95334.38;5132250;28;20898;-60
2022/06/26 05:36:49;;;;;;;0.50;0.40;;;;;;;21.60;100.00;95340.44;5131643;28;20506;-60
2022/06/26 05:39:17;;;;;;;0.50;0.50;;;;;;;22.10;100.00;95335.44;5132465;28;20502;-60
2022/06/26 05:41:45;;;;;;;1.57;0.50;;;;;;;21.73;100.00;95345.47;5132164;28;20501;-60
2022/06/26 05:44:14;;;;;;;0.40;0.33;;;;;;;21.64;100.00;95341.31;5131983;28;20506;-60
2022/06/26 05:46:43;;;;;;;0.87;0.87;;;;;;;21.79;100.00;95336.03;5132655;27;20487;-60
2022/06/26 05:49:11;;;;;;;0.70;0.43;;;;;;;22.54;100.00;95347.88;5135778;27;20475;-60
2022/06/26 05:51:40;;;;;;;1.23;0.80;;;;;;;21.70;100.00;95218.59;5135674;27;20553;-60
2022/06/26 05:54:10;;;;;;;1.20;0.70;;;;;;;22.61;100.00;95296.78;5136023;27;20501;-60
2022/06/26 05:56:38;;;;;;;0.40;0.40;;;;;;;22.92;100.00;95325.78;5135646;27;20925;-60
2022/06/26 05:59:06;;;;;;;0.77;0.77;;;;;;;23.58;100.00;95344.84;5135617;27;20514;-60
2022/06/26 06:01:35;;;;;;;4.50;0.60;;;;;;;22.81;100.00;95318.53;5135631;27;20502;-60
2022/06/26 06:04:04;;;;;;;0.67;0.53;;;;;;;23.64;100.00;95348.88;5135551;27;20415;-58
2022/06/26 06:06:32;;;;;;;0.87;0.63;;;;;;;23.39;100.00;95317.72;5135517;27;20891;-58
2022/06/26 06:09:01;;;;;;;0.63;0.40;;;;;;;23.48;100.00;95341.91;5135221;27;20414;-58
2022/06/26 06:11:30;;;;;;;0.63;0.43;;;;;;;24.10;100.00;95343.72;5135592;27;20490;-58
2022/06/26 06:13:59;;;;;;;0.50;0.30;;;;;;;24.16;100.00;95285.47;5135405;27;20483;-58
2022/06/26 06:16:27;;;;;;;0.40;0.40;;;;;;;24.73;100.00;95336.13;5135793;27;20510;-58
2022/06/26 06:18:56;;;;;;;1.03;0.93;;;;;;;24.04;100.00;95267.38;5135478;27;20471;-58
2022/06/26 06:21:24;;;;;;;0.67;0.67;;;;;;;24.67;100.00;95330.19;5135213;27;20899;-58
2022/06/26 06:23:53;;;;;;;1.10;0.53;;;;;;;23.84;100.00;95160.22;5135534;27;20842;-58
2022/06/26 06:26:21;;;;;;;0.53;0.40;;;;;;;24.72;100.00;95326.44;5135409;27;20608;-58
2022/06/26 06:28:51;;;;;;;0.60;0.57;;;;;;;24.54;100.00;95334.22;5135345;27;20835;-58
2022/06/26 06:31:20;;;;;;;0.40;0.40;;;;;;;24.19;100.00;95295.56;5135050;27;20462;-58
2022/06/26 06:33:48;;;;;;;0.83;0.83;;;;;;;24.55;100.00;95336.56;5134951;27;20418;-59
2022/06/26 06:36:17;;;;;;;0.87;0.87;;;;;;;24.43;100.00;95298.78;5135276;27;20821;-59
2022/06/26 06:38:45;;;;;;;0.90;0.60;;;;;;;25.16;100.00;95335.78;5135296;27;20469;-59
2022/06/26 06:41:14;;;;;;;0.60;0.60;;;;;;;24.63;100.00;95332.06;5133791;27;20902;-59
2022/06/26 06:43:43;;;;;;;0.50;0.43;;;;;;;24.46;100.00;95338.69;5132965;27;20877;-59
2022/06/26 06:46:14;;;;;;;0.67;0.67;;;;;;;25.12;100.00;95329.53;5131448;27;20869;-59
2022/06/26 06:48:42;;;;;;;0.83;0.47;;;;;;;25.80;100.00;95329.50;5130822;27;20509;-60
2022/06/26 06:51:11;;;;;;;0.77;0.77;;;;;;;25.71;100.00;95320.81;5131261;27;20497;-59
2022/06/26 06:53:39;;;;;;;2.30;0.50;;;;;;;25.25;100.00;95234.03;5131617;27;20518;-60
2022/06/26 06:56:07;;;;;;;0.53;0.53;;;;;;;25.58;100.00;95333.81;5131553;27;20525;-60
2022/06/26 06:58:36;;;;;;;0.70;0.70;;;;;;;25.69;100.00;95333.97;5132114;27;20475;-60
2022/06/26 07:01:04;;;;;;;0.50;0.40;;;;;;;25.14;100.00;95322.59;5133668;27;20844;-59
2022/06/26 07:03:34;;;;;;;0.80;0.70;;;;;;;25.07;100.00;95329.84;5134422;27;20444;-59
2022/06/26 07:06:03;;;;;;;3.27;0.80;;;;;;;25.54;100.00;95322.13;5134267;27;20450;-59
2022/06/26 07:08:31;;;;;;;0.50;0.47;;;;;;;25.56;100.00;95327.16;5134406;27;20528;-59
2022/06/26 07:11:00;;;;;;;1.53;0.77;;;;;;;26.13;100.00;95317.97;5134132;27;20510;-60
2022/06/26 07:13:28;;;;;;;1.00;0.60;;;;;;;25.80;100.00;95299.63;5134526;27;20804;-60
2022/06/26 07:15:57;;;;;;;0.57;0.57;;;;;;;26.61;100.00;95324.38;5134430;27;20407;-61
2022/06/26 07:18:25;;;;;;;0.60;0.50;;;;;;;26.96;100.00;95320.16;5134289;27;20865;-62
2022/06/26 07:20:55;;;;;;;0.87;0.87;;;;;;;27.37;100.00;95325.59;5134507;27;20497;-63
2022/06/26 07:23:24;;;;;;;1.17;1.07;;;;;;;27.09;100.00;95324.19;5133989;27;20415;-63
2022/06/26 07:25:52;;;;;;;0.40;0.30;;;;;;;27.96;99.71;95317.09;5133941;27;20506;-63
2022/06/26 07:28:20;;;;;;;1.10;1.10;;;;;;;27.61;100.00;95323.09;5133858;27;20908;-63
2022/06/26 07:30:49;;;;;;;1.37;0.50;;;;;;;27.51;97.05;95320.28;5133749;27;20509;-63
2022/06/26 07:36:05;;;;;;;0.57;0.57;;;;;;;27.73;93.51;95319.28;5133774;27;20450;-61
2022/06/26 07:38:33;;;;;;;0.90;0.80;;;;;;;28.24;89.33;95308.34;5133697;27;20458;-60
2022/06/26 07:41:02;;;;;;;2.67;0.87;;;;;;;28.75;92.14;95321.81;5133592;27;20510;-61
2022/06/26 07:43:30;;;;;;;1.13;0.60;;;;;;;29.26;88.87;95316.13;5133827;27;20813;-60
2022/06/26 07:45:59;;;;;;;0.50;0.30;;;;;;;28.97;93.54;95309.03;5133456;27;20505;-60
2022/06/26 07:48:28;;;;;;;0.40;0.30;;;;;;;29.10;89.65;95318.41;5133484;27;20480;-59
2022/06/26 07:50:56;;;;;;;0.47;0.40;;;;;;;28.57;90.25;95321.72;5133772;27;20442;-60
2022/06/26 07:53:27;;;;;;;6.83;0.50;;;;;;;27.43;97.64;95316.72;5133306;27;20459;-60
2022/06/26 07:55:55;;;;;;;0.63;0.50;;;;;;;27.57;100.00;95313.34;5133389;27;20933;-60
2022/06/26 07:58:24;;;;;;;0.83;0.83;;;;;;;27.11;100.00;95315.63;5133572;27;20501;-60
2022/06/26 08:00:53;;;;;;;0.70;0.60;;;;;;;27.21;100.00;95316.88;5133247;27;20443;-60
2022/06/26 08:03:21;;;;;;;0.40;0.30;;;;;;;27.11;100.00;95321.06;5133016;27;21059;-60
2022/06/26 08:05:50;;;;;;;0.50;0.40;;;;;;;27.67;100.00;95315.34;5133328;27;20501;-59
2022/06/26 08:08:18;;;;;;;2.13;2.03;;;;;;;27.20;98.94;95318.81;5133063;27;20458;-59
2022/06/26 08:10:48;;;;;;;1.60;1.00;;;;;;;27.35;100.00;95325.94;5132508;27;20895;-59
2022/06/26 08:13:17;;;;;;;0.60;0.60;;;;;;;27.79;97.78;95314.25;5132825;27;21058;-59
2022/06/26 08:15:45;;;;;;;0.60;0.57;;;;;;;27.16;99.97;95319.94;5133092;27;20422;-60
2022/06/26 08:18:14;;;;;;;0.80;0.40;;;;;;;27.99;94.58;95326.47;5133414;27;20422;-59
2022/06/26 08:20:43;;;;;;;0.50;0.50;;;;;;;28.44;87.87;95319.75;5133222;27;20490;-59
2022/06/26 08:23:11;;;;;;;0.67;0.67;;;;;;;29.19;87.10;95322.34;5133314;27;20493;-58
2022/06/26 08:25:40;;;;;;;1.33;0.60;;;;;;;29.66;90.95;95317.69;5133320;27;20510;-58
2022/06/26 08:28:10;;;;;;;3.50;0.60;;;;;;;28.94;86.65;95326.97;5132926;27;20910;-59
2022/06/26 08:30:38;;;;;;;0.60;0.60;;;;;;;28.46;87.27;95329.09;5133250;27;20845;-59
2022/06/26 08:33:07;;;;;;;0.60;0.50;;;;;;;28.12;94.24;95325.00;5132847;27;20886;-59
2022/06/26 08:35:35;;;;;;;0.47;0.40;;;;;;;27.51;87.18;95318.34;5132901;27;20450;-60
2022/06/26 08:38:04;;;;;;;0.40;0.40;;;;;;;27.72;90.55;95323.19;5132832;27;20462;-59
2022/06/26 08:40:33;;;;;;;0.40;0.30;;;;;;;28.01;87.35;95324.94;5133149;27;20418;-60
2022/06/26 08:43:05;;;;;;;0.40;0.30;;;;;;;28.27;84.05;95318.47;5133082;28;20506;-60
2022/06/26 08:45:36;;;;;;;0.53;0.40;;;;;;;27.56;89.43;95328.09;5132412;28;20466;-60
2022/06/26 08:48:07;;;;;;;1.03;0.93;;;;;;;27.06;96.33;95318.69;5132767;27;20471;-60
2022/06/26 08:50:36;;;;;;;0.60;0.53;;;;;;;26.65;100.00;95327.91;5132678;28;20461;-59
2022/06/26 08:53:06;;;;;;;0.50;0.40;;;;;;;27.28;100.00;95323.16;5132619;28;20458;-59
2022/06/26 08:55:35;;;;;;;0.50;0.50;;;;;;;27.35;100.00;95323.22;5132669;28;20445;-59
2022/06/26 08:58:03;;;;;;;2.90;0.63;;;;;;;27.51;100.00;95331.97;5132431;27;20457;-59
2022/06/26 09:00:32;;;;;;;0.63;0.63;;;;;;;27.27;97.89;95335.22;5132610;28;20421;-59
2022/06/26 09:03:02;;;;;;;0.50;0.50;;;;;;;27.10;100.00;95338.53;5132966;27;20498;-59
2022/06/26 09:05:30;;;;;;;0.63;0.63;;;;;;;27.10;100.00;95336.63;5132423;28;20513;-59
2022/06/26 09:07:59;;;;;;;0.83;0.50;;;;;;;26.83;100.00;95340.59;5132957;28;20501;-60
2022/06/26 09:10:29;;;;;;;1.00;1.00;;;;;;;27.19;100.00;95340.97;5133578;27;20422;-60
2022/06/26 09:12:59;;;;;;;0.50;0.30;;;;;;;27.29;100.00;95340.28;5132210;28;20913;-60
2022/06/26 09:15:28;;;;;;;1.70;0.50;;;;;;;27.63;95.70;95339.03;5132725;27;20457;-59
2022/06/26 09:17:58;;;;;;;0.60;0.40;;;;;;;28.02;95.18;95342.09;5132620;28;20485;-59
2022/06/26 09:20:29;;;;;;;0.47;0.47;;;;;;;27.74;89.57;95301.78;5132575;28;20777;-60
2022/06/26 09:23:01;;;;;;;0.50;0.30;;;;;;;27.85;88.75;95343.50;5135215;27;20865;-59
2022/06/26 09:25:37;;;;;;;1.10;1.10;;;;;;;27.95;88.05;95347.47;5136128;27;20454;-59
2022/06/26 09:28:11;;;;;;;0.63;0.63;;;;;;;28.47;76.77;95336.09;5136060;27;20418;-58
2022/06/26 09:30:51;;;;;;;0.70;0.40;;;;;;;28.81;69.58;95342.13;5135952;27;20915;-58
2022/06/26 09:33:20;;;;;;;0.87;0.87;;;;;;;29.19;69.79;95338.72;5136086;27;20465;-57
2022/06/26 09:35:51;;;;;;;0.60;0.43;;;;;;;28.93;67.08;95342.53;5136471;27;20486;-58
2022/06/26 09:38:21;;;;;;;0.90;0.90;;;;;;;28.98;73.56;95343.31;5135979;27;20419;-58
2022/06/26 09:40:52;;;;;;;0.70;0.40;;;;;;;28.69;73.97;95337.78;5135852;27;20419;-58
2022/06/26 09:43:28;;;;;;;2.20;0.50;;;;;;;28.67;69.29;95344.78;5136289;27;20422;-58
2022/06/26 09:45:58;;;;;;;0.40;0.30;;;;;;;28.78;69.16;95338.22;5135679;27;20548;-58
2022/06/26 09:48:27;;;;;;;0.40;0.40;;;;;;;27.98;72.11;95308.56;5136098;27;20423;-59
2022/06/26 09:50:58;;;;;;;0.50;0.40;;;;;;;28.55;73.17;95336.91;5136047;27;20846;-59
2022/06/26 09:53:28;;;;;;;0.40;0.30;;;;;;;28.60;77.62;95339.28;5136032;27;20458;-59
2022/06/26 09:55:58;;;;;;;0.97;0.50;;;;;;;28.66;76.43;95338.56;5135729;27;20422;-59
2022/06/26 09:58:28;;;;;;;1.27;0.50;;;;;;;28.46;72.16;95320.13;5135725;27;20479;-59
2022/06/26 10:06:33;;;;;;;0.50;0.50;;;;;;;30.01;59.61;95321.19;5134458;27;20851;-58
2022/06/26 10:09:04;;;;;;;3.97;0.40;;;;;;;30.21;57.26;95324.25;5135413;27;20414;-58
2022/06/26 10:11:34;;;;;;;0.40;0.30;;;;;;;31.59;55.16;95320.91;5135359;27;20461;-58
2022/06/26 10:14:06;;;;;;;0.40;0.30;;;;;;;31.56;50.49;95327.97;5135268;27;20501;-57
2022/06/26 10:17:01;;;;;;;0.40;0.30;;;;;;;31.40;52.56;95311.22;5135276;27;20475;-58
2022/06/26 10:19:35;;;;;;;0.40;0.30;;;;;;;30.40;53.11;95314.88;5127352;27;20464;-58
2022/06/26 10:22:06;;;;;;;0.53;0.40;;;;;;;30.55;53.06;95316.38;5134747;27;20501;-58
2022/06/26 10:24:34;;;;;;;0.50;0.40;;;;;;;31.22;47.57;95253.09;5134632;27;20414;-58
2022/06/26 10:27:04;;;;;;;0.40;0.30;;;;;;;31.36;41.78;95300.31;5134651;27;20467;-57
2022/06/26 10:29:34;;;;;;;0.50;0.40;;;;;;;31.06;39.86;95313.81;5135342;27;20446;-58
2022/06/26 10:32:03;;;;;;;0.57;0.43;;;;;;;31.00;41.63;95311.88;5135054;27;21024;-59
2022/06/26 10:34:32;;;;;;;0.50;0.50;;;;;;;31.96;41.13;95318.22;5134790;27;21027;-58
2022/06/26 10:37:03;;;;;;;0.50;0.40;;;;;;;32.57;43.40;95314.50;5134957;27;20457;-58
2022/06/26 10:39:45;;;;;;;1.33;1.03;;;;;;;33.24;40.15;95305.38;5134947;27;20480;-57
2022/06/26 10:45:11;;;;;;;0.50;0.33;;;;;;;33.17;39.11;95315.69;5134696;27;20495;-58
2022/06/26 10:47:45;;;;;;;0.50;0.47;;;;;;;32.50;41.93;95309.06;5135112;27;20489;-58
2022/06/26 10:50:25;;;;;;;0.40;0.30;;;;;;;32.47;41.54;95320.84;5135095;27;20416;-58
2022/06/26 10:52:54;;;;;;;0.40;0.30;;;;;;;31.88;42.76;95317.50;5134508;27;20425;-58
2022/06/26 10:55:24;;;;;;;0.57;0.50;;;;;;;31.12;41.98;95320.41;5134335;27;20427;-58
2022/06/26 10:57:53;;;;;;;0.40;0.30;;;;;;;31.25;41.90;95307.03;5134522;27;20455;-58
2022/06/26 11:00:21;;;;;;;0.43;0.40;;;;;;;30.74;44.67;95308.47;5134599;27;20514;-58
2022/06/26 11:02:49;;;;;;;0.40;0.30;;;;;;;30.64;45.05;95268.25;5134771;27;20497;-58
2022/06/26 11:05:20;;;;;;;0.60;0.60;;;;;;;31.54;41.55;95302.94;5134492;27;20476;-58
2022/06/26 11:07:50;;;;;;;0.40;0.33;;;;;;;31.75;42.17;95263.63;5134588;27;20471;-58
2022/06/26 11:10:20;;;;;;;0.40;0.30;;;;;;;33.08;37.56;95307.97;5134353;27;20506;-58
2022/06/26 11:12:52;;;;;;;0.60;0.40;;;;;;;32.75;37.56;95300.53;5134363;27;20459;-58
2022/06/26 11:15:26;;;;;;;0.40;0.30;;;;;;;32.46;39.49;95313.03;5134350;27;20495;-58
2022/06/26 11:17:59;;;;;;;0.40;0.40;;;;;;;32.32;39.84;95302.22;5134285;27;20443;-58
2022/06/26 11:20:53;;;;;;;0.70;0.70;;;;;;;31.55;41.87;95288.03;5133979;27;20841;-59
2022/06/26 11:23:25;;;;;;;0.40;0.40;;;;;;;30.43;43.44;95300.41;5133489;27;20467;-59
2022/06/26 11:25:57;;;;;;;1.50;0.53;;;;;;;29.99;48.67;95298.94;5133917;27;20494;-59
2022/06/26 11:28:31;;;;;;;0.40;0.30;;;;;;;30.34;50.50;95302.75;5134937;27;20795;-59
2022/06/26 11:31:00;;;;;;;0.80;0.80;;;;;;;30.01;52.18;95306.75;5133746;27;20419;-59
2022/06/26 11:33:31;;;;;;;0.40;0.30;;;;;;;30.09;48.48;95309.06;5133713;27;20827;-59
2022/06/26 11:36:03;;;;;;;0.30;0.30;;;;;;;30.41;52.87;95237.88;5133250;27;20422;-59
2022/06/26 11:38:31;;;;;;;0.40;0.30;;;;;;;31.77;46.60;95305.09;5133551;27;20480;-59
2022/06/26 11:41:01;;;;;;;0.40;0.30;;;;;;;31.53;47.27;95300.59;5133392;27;20426;-59
2022/06/26 11:43:31;;;;;;;0.40;0.40;;;;;;;30.85;45.76;95313.91;5135684;27;20458;-59
2022/06/26 11:46:06;;;;;;;0.40;0.33;;;;;;;30.44;50.36;95299.22;5135011;27;20480;-59
2022/06/26 11:48:35;;;;;;;0.70;0.30;;;;;;;30.54;51.19;95306.59;5136430;27;20800;-59
2022/06/26 11:51:04;;;;;;;0.50;0.43;;;;;;;30.83;49.76;95266.22;5133886;27;20422;-59
2022/06/26 11:53:34;;;;;;;1.03;0.50;;;;;;;31.56;54.10;95289.59;5133570;27;20410;-59